ハリファックス の空港の天気 - METARとTAF

ハリファックス国際空港 ( CYHZ / YHZ ) - カナダ ノバスコシア州ハリファックス
飛行場実況気象(Metar)
観測時間07/18 01:00 ADT (07/18 04:00 UTC)
風向・風速南南西 7m/s
視程2400m
天気現象もや
全天を覆う雲 鉛直視程 30m
気温19℃
湿度100%
気圧1011.4hPa
METARCYHZ 180400Z 20014KT 1 1/2SM BR VV001 19/19 A2986 RMK FG8 SLP114 DENSITY ALT 1200FT
過去の天気等 Google飛行場航空写真 Wunderground天気予報

過去48時間のMETAR

飛行場予報(TAF)
発表時間: 7/17 23:38 ADT (7/18 02:38 UTC)
予報対象時間: 18日0時 ADT ~ 18日21時 ADT
風向・風速南南西 6m/s
視程1610m
天気現象もや
全天の4割程度の雲 雲底高度 30m
全天を覆う雲 雲底高度 90m
18日0時 ADT ~ 18日3時 ADT に一時的に
視程400m
天気現象
全天を覆う雲 鉛直視程 30m
18日3時 ADT から
風向・風速南 6m/s
視程400m
天気現象
全天を覆う雲 鉛直視程 30m
18日3時 ADT ~ 18日13時 ADT に一時的に
視程3220m
天気現象弱いしゅう雨 もや
全天を覆う雲 雲底高度 90m
18日13時 ADT から
風向・風速南西 4m/s
視程8050m
天気現象弱いしゅう雨 もや
全天の8割程度の雲 雲底高度 240m
全天を覆う雲 雲底高度 460m
18日17時 ADT から
風向・風速北北西 5m/s
視程10km以上
全天の8割程度の雲 雲底高度 610m
TAF CYHZ 180238Z 1803/1824 20012KT 1SM BR SCT001 OVC003
TEMPO 1803/1806 1/4SM FG VV001
FM180600 19012KT 1/4SM FG VV001
TEMPO 1806/1816 2SM -SHRA BR OVC003
FM181600 23008KT 5SM -SHRA BR BKN008 OVC015
FM182000 33010KT P6SM BKN020 RMK NXT FCST BY 180600Z